Time;durP1;ratioP1;P1;durP2;ratioP2;P2;SDS_P1;SDS_P2;PMS_P1;PMS_P2;Temp;Humidity;BMP_temperature;BMP_pressure;BME280_temperature;BME280_humidity;BME280_pressure;Samples;Min_cycle;Max_cycle;Signal;HPM_P1;HPM_P2
2022/01/15 00:00:14;;;;;;;37.50;11.40;;;3.80;99.90;;;3.44;98.25;102673.97;5227274;28;20053;-69
2022/01/15 00:02:46;;;;;;;40.15;11.98;;;3.90;99.90;;;3.47;98.66;102666.53;5226871;28;20052;-69
2022/01/15 00:05:19;;;;;;;35.45;11.55;;;3.80;99.90;;;3.47;98.15;102669.09;5250448;22;20121;-85
2022/01/15 00:07:51;;;;;;;34.95;11.18;;;3.80;99.90;;;3.34;98.28;102646.44;5231122;28;20049;-88
2022/01/15 00:10:26;;;;;;;36.25;12.23;;;3.80;99.90;;;3.42;98.66;102655.78;5239197;28;20048;-92
2022/01/15 00:13:02;;;;;;;;;;;3.90;99.90;;;3.49;98.67;102672.72;5240664;28;20057;-85
2022/01/15 00:15:38;;;;;;;34.92;9.85;;;3.90;99.90;;;3.40;98.55;102651.25;5240411;28;19927;-85
2022/01/15 00:18:13;;;;;;;39.55;10.48;;;3.80;99.90;;;3.53;98.49;102669.69;5240558;28;20171;-84
2022/01/15 00:20:45;;;;;;;40.03;11.60;;;3.90;99.90;;;3.42;98.32;102662.59;5240030;28;20061;-86
2022/01/15 00:23:17;;;;;;;38.70;11.75;;;3.80;99.90;;;3.44;98.46;102654.25;5240771;28;20132;-86
2022/01/15 00:25:49;;;;;;;43.90;11.95;;;3.80;99.90;;;3.46;98.73;102657.88;5240078;28;20104;-85
2022/01/15 00:28:23;;;;;;;32.97;10.50;;;3.90;99.90;;;3.43;98.74;102661.84;5238395;28;20078;-85
2022/01/15 00:30:55;;;;;;;33.20;11.02;;;3.80;99.90;;;3.38;98.67;102653.66;5218157;28;20050;-83
2022/01/15 00:33:29;;;;;;;27.55;9.20;;;3.80;99.90;;;3.38;98.67;102652.75;5218172;28;20061;-81
2022/01/15 00:36:02;;;;;;;35.15;10.63;;;3.80;99.90;;;3.37;98.48;102657.00;5217435;28;20053;-82
2022/01/15 00:38:34;;;;;;;34.67;10.93;;;3.80;99.90;;;3.40;98.63;102651.25;5217472;28;20055;-81
2022/01/15 00:41:06;;;;;;;32.47;9.65;;;3.80;99.90;;;3.38;98.55;102648.50;5217783;28;20063;-82
2022/01/15 00:43:40;;;;;;;34.97;10.80;;;3.70;99.90;;;3.39;98.58;102647.78;5217591;28;20045;-81
2022/01/15 00:46:12;;;;;;;35.30;10.48;;;3.70;99.90;;;3.37;98.59;102653.53;5217316;28;20046;-80
2022/01/15 00:48:44;;;;;;;33.35;10.10;;;3.70;99.90;;;3.36;98.54;102655.19;5218631;28;20491;-81
2022/01/15 00:51:16;;;;;;;32.47;10.13;;;3.70;99.90;;;3.36;98.62;102644.88;5216800;28;20053;-80
2022/01/15 00:53:48;;;;;;;32.97;9.73;;;3.70;99.90;;;3.29;98.93;102641.59;5217423;28;20137;-79
2022/01/15 00:56:20;;;;;;;31.25;9.80;;;3.70;99.90;;;3.32;98.75;102642.78;5217746;28;20049;-81
2022/01/15 00:58:55;;;;;;;34.65;9.32;;;3.70;99.90;;;3.28;98.86;102648.44;5216937;28;20595;-80
2022/01/15 01:01:28;;;;;;;33.88;9.82;;;3.70;99.90;;;3.20;99.35;102642.56;5215595;28;20068;-84
2022/01/15 01:03:59;;;;;;;37.22;9.77;;;3.60;99.90;;;3.22;99.27;102640.13;5215093;28;20061;-82
2022/01/15 01:06:32;;;;;;;29.63;8.00;;;3.60;99.90;;;3.16;99.58;102653.34;5216770;28;20060;-80
2022/01/15 01:09:04;;;;;;;26.77;9.15;;;3.60;99.90;;;3.14;99.58;102652.31;5215685;28;20049;-79
2022/01/15 01:11:45;;;;;;;24.02;8.85;;;3.60;99.90;;;3.04;99.46;102643.56;5218298;28;20143;-84
2022/01/15 01:20:09;;;;;;;28.33;7.95;;;3.50;99.90;;;2.92;100.00;102635.56;5216428;28;20227;-81
2022/01/15 01:22:55;;;;;;;24.33;7.55;;;3.50;99.90;;;2.89;100.00;102643.03;5215595;28;20145;-82
2022/01/15 01:25:34;;;;;;;25.65;7.60;;;3.40;99.90;;;2.99;100.00;102640.53;5215104;28;20049;-82
2022/01/15 01:28:10;;;;;;;25.13;7.95;;;3.40;99.90;;;3.09;100.00;102642.31;5218383;28;20049;-82
2022/01/15 01:30:49;;;;;;;27.88;8.30;;;3.50;99.90;;;3.13;100.00;102636.66;5217255;28;20053;-82
2022/01/15 01:33:33;;;;;;;27.33;7.72;;;3.50;99.90;;;3.13;100.00;102629.88;5217836;28;20097;-84
2022/01/15 01:36:15;;;;;;;28.00;7.50;;;3.50;99.90;;;3.14;99.64;102625.63;5217430;28;20674;-82
2022/01/15 01:38:52;;;;;;;26.77;7.75;;;3.50;99.90;;;3.17;99.83;102624.22;5219786;28;20076;-82
2022/01/15 01:41:34;;;;;;;23.80;8.02;;;3.50;99.90;;;3.22;100.00;102624.66;5217922;28;20136;-81
2022/01/15 01:44:08;;;;;;;27.90;7.93;;;3.50;99.90;;;3.27;99.82;102623.44;5217822;28;20072;-81
2022/01/15 01:46:48;;;;;;;25.42;7.70;;;3.50;99.90;;;3.23;99.64;102613.59;5218060;28;20055;-83
2022/01/15 01:49:20;;;;;;;26.77;7.85;;;3.60;99.90;;;3.21;99.48;102620.28;5218232;28;20049;-81
2022/01/15 01:51:53;;;;;;;26.50;8.07;;;3.60;99.90;;;3.16;99.80;102624.09;5218942;28;20053;-81
2022/01/15 01:54:25;;;;;;;26.05;8.15;;;3.50;99.90;;;3.16;99.87;102616.34;5219406;28;20113;-80
2022/01/15 01:56:57;;;;;;;29.08;7.10;;;3.60;99.90;;;3.19;99.65;102614.03;5224298;28;20135;-82
2022/01/15 01:59:30;;;;;;;25.25;7.28;;;3.60;99.90;;;3.25;99.28;102606.88;5228955;28;20049;-81
2022/01/15 02:02:05;;;;;;;27.08;8.88;;;3.60;99.90;;;3.26;99.70;102606.16;5227175;28;20048;-81
2022/01/15 02:04:37;;;;;;;29.88;9.05;;;3.60;99.90;;;3.27;99.63;102607.97;5222157;28;21075;-83
2022/01/15 02:07:09;;;;;;;29.30;8.68;;;3.60;99.90;;;3.28;99.64;102599.47;5230422;28;20055;-82
2022/01/15 02:09:41;;;;;;;25.83;7.05;;;3.50;99.90;;;3.25;99.45;102594.91;5229179;28;20045;-81
2022/01/15 02:12:13;;;;;;;27.17;7.47;;;3.60;99.90;;;3.14;99.77;102594.69;5236019;28;20041;-83
2022/01/15 02:14:45;;;;;;;26.00;7.78;;;3.50;99.90;;;3.08;99.70;102597.59;5240032;28;20106;-82
2022/01/15 02:17:21;;;;;;;25.52;7.38;;;3.50;99.90;;;2.97;100.00;102588.88;5233521;28;20049;-80
2022/01/15 02:20:10;;;;;;;21.73;6.78;;;3.50;99.90;;;2.94;100.00;102590.25;5227768;28;20053;-80
2022/01/15 02:25:42;;;;;;;21.20;6.72;;;3.40;99.90;;;2.93;100.00;102584.22;5233490;28;20125;-82
2022/01/15 02:28:16;;;;;;;20.95;7.32;;;3.40;99.90;;;2.94;100.00;102575.72;5224001;28;20107;-81
2022/01/15 02:30:53;;;;;;;25.35;7.72;;;3.40;99.90;;;2.80;100.00;102564.84;5234657;28;20044;-80
2022/01/15 02:33:25;;;;;;;25.15;8.57;;;3.40;99.90;;;2.81;100.00;102572.75;5232556;28;20059;-80
2022/01/15 02:36:00;;;;;;;24.27;8.30;;;3.40;99.90;;;2.83;100.00;102566.06;5236296;28;20040;-79
2022/01/15 02:38:32;;;;;;;22.77;6.97;;;3.30;99.90;;;2.82;100.00;102564.25;5238065;28;20449;-81
2022/01/15 02:41:04;;;;;;;29.83;8.05;;;3.30;99.90;;;2.85;100.00;102564.53;5239302;28;20049;-81
2022/01/15 02:43:36;;;;;;;28.30;6.70;;;3.30;99.90;;;2.86;100.00;102558.59;5238655;28;20041;-83
2022/01/15 02:46:22;;;;;;;23.90;6.97;;;3.30;99.90;;;2.91;100.00;102557.38;5238712;28;20071;-81
2022/01/15 02:48:57;;;;;;;25.35;7.80;;;3.30;99.90;;;2.95;100.00;102567.22;5238063;28;20044;-80
2022/01/15 02:51:33;;;;;;;26.20;7.80;;;3.30;99.90;;;3.01;100.00;102572.03;5238126;28;20045;-80
2022/01/15 02:54:06;;;;;;;25.63;7.35;;;3.40;99.90;;;2.95;100.00;102561.16;5234761;28;20100;-81
2022/01/15 02:56:41;;;;;;;18.33;6.68;;;3.40;99.90;;;2.85;100.00;102559.38;5237243;28;20041;-81
2022/01/15 02:59:18;;;;;;;22.95;6.30;;;3.30;99.90;;;2.72;100.00;102561.56;5238876;28;20059;-82
2022/01/15 03:01:53;;;;;;;21.23;6.32;;;3.30;99.90;;;2.67;100.00;102563.72;5237754;28;20071;-80
2022/01/15 03:04:26;;;;;;;17.20;6.30;;;3.20;99.90;;;2.60;100.00;102560.41;5235064;28;20064;-82
2022/01/15 03:07:00;;;;;;;21.08;6.55;;;3.10;99.90;;;2.57;100.00;102558.47;5238072;28;20063;-82
2022/01/15 03:09:32;;;;;;;21.67;6.10;;;3.10;99.90;;;2.60;100.00;102552.69;5239198;28;20060;-84
2022/01/15 03:12:05;;;;;;;22.88;6.97;;;3.10;99.90;;;2.69;100.00;102550.97;5243270;28;20144;-82
2022/01/15 03:14:37;;;;;;;18.77;6.30;;;3.10;99.90;;;2.70;100.00;102557.94;5241104;28;20053;-81
2022/01/15 03:17:09;;;;;;;18.00;5.93;;;3.10;99.90;;;2.60;100.00;102550.09;5241676;28;20117;-80
2022/01/15 03:19:42;;;;;;;15.05;5.57;;;3.10;99.90;;;2.60;100.00;102551.00;5242571;28;20064;-83
2022/01/15 03:22:15;;;;;;;20.23;5.90;;;3.10;99.90;;;2.57;100.00;102544.69;5241458;28;20135;-81
2022/01/15 03:24:47;;;;;;;17.75;6.20;;;3.10;99.90;;;2.63;100.00;102535.84;5241510;28;20113;-83
2022/01/15 03:27:23;;;;;;;17.63;5.88;;;3.00;99.90;;;2.52;100.00;102546.81;5241942;28;20071;-81
2022/01/15 03:29:55;;;;;;;19.55;6.25;;;3.00;99.90;;;2.40;100.00;102531.09;5241940;28;20065;-81
2022/01/15 03:32:27;;;;;;;17.80;7.00;;;3.00;99.90;;;2.42;100.00;102534.75;5242541;28;20055;-84
2022/01/15 03:34:59;;;;;;;17.80;6.03;;;3.00;99.90;;;2.41;100.00;102538.09;5241772;28;20135;-83
2022/01/15 03:37:33;;;;;;;18.70;6.53;;;3.00;99.90;;;2.38;100.00;102542.94;5241381;28;20067;-81
2022/01/15 03:40:07;;;;;;;17.20;6.00;;;2.90;99.90;;;2.36;100.00;102540.97;5238815;28;20041;-81
2022/01/15 03:42:40;;;;;;;20.60;7.15;;;2.90;99.90;;;2.36;100.00;102539.31;5239085;28;20144;-83
2022/01/15 03:45:13;;;;;;;17.50;6.05;;;2.90;99.90;;;2.39;100.00;102542.16;5237334;28;20061;-82
2022/01/15 03:47:49;;;;;;;15.43;5.20;;;2.90;99.90;;;2.44;100.00;102537.47;5236136;28;20060;-81
2022/01/15 03:50:21;;;;;;;13.10;5.25;;;2.90;99.90;;;2.48;100.00;102538.63;5235165;28;20045;-82
2022/01/15 03:52:55;;;;;;;17.10;5.72;;;2.90;99.90;;;2.35;100.00;102539.19;5234947;28;20053;-81
2022/01/15 03:55:27;;;;;;;14.15;5.28;;;2.90;99.90;;;2.26;100.00;102540.84;5233194;28;20049;-81
2022/01/15 03:58:00;;;;;;;15.20;5.70;;;2.80;99.90;;;2.22;100.00;102528.44;5234712;28;20045;-81
2022/01/15 04:00:32;;;;;;;16.15;5.03;;;2.80;99.90;;;2.31;100.00;102529.34;5234050;28;20143;-81
2022/01/15 04:03:05;;;;;;;13.73;5.53;;;2.80;99.90;;;2.33;100.00;102525.22;5233615;28;20056;-80
2022/01/15 04:05:37;;;;;;;13.68;5.80;;;2.80;99.90;;;2.38;100.00;102521.44;5233538;28;20467;-82
2022/01/15 04:08:11;;;;;;;14.70;5.80;;;2.80;99.90;;;2.34;100.00;102512.50;5233436;28;20132;-84
2022/01/15 04:10:43;;;;;;;17.83;6.22;;;2.80;99.90;;;2.36;99.85;102518.72;5232993;28;20053;-80
2022/01/15 04:13:15;;;;;;;14.73;4.93;;;2.80;99.90;;;2.41;99.79;102508.84;5237616;28;20048;-83
2022/01/15 04:15:51;;;;;;;15.65;6.40;;;2.90;99.90;;;2.44;99.58;102504.00;5252584;28;20075;-84
2022/01/15 04:18:23;;;;;;;13.23;5.30;;;2.90;99.90;;;2.43;99.11;102495.38;5251956;28;20060;-80
2022/01/15 04:20:58;;;;;;;14.30;5.45;;;2.90;99.90;;;2.28;98.18;102493.94;5239118;28;20099;-81
2022/01/15 04:23:31;;;;;;;15.65;5.53;;;2.80;99.90;;;2.27;98.64;102492.09;5238526;28;20397;-83
2022/01/15 04:26:04;;;;;;;15.15;5.55;;;2.80;99.90;;;2.24;98.67;102491.81;5236591;28;20049;-81
2022/01/15 04:28:36;;;;;;;18.15;5.90;;;2.70;99.90;;;2.28;98.78;102499.06;5236506;28;20080;-82
2022/01/15 04:31:09;;;;;;;15.40;5.60;;;2.70;99.90;;;2.30;98.36;102497.53;5236688;28;20068;-81
2022/01/15 04:33:41;;;;;;;17.80;5.90;;;2.80;99.90;;;2.16;98.37;102477.31;5238434;28;20040;-82
2022/01/15 04:36:13;;;;;;;15.70;5.72;;;2.70;99.90;;;2.23;98.47;102484.84;5239180;28;20049;-81
2022/01/15 04:38:46;;;;;;;15.48;5.82;;;2.70;99.90;;;2.24;98.27;102491.81;5237953;28;20049;-82
2022/01/15 04:41:18;;;;;;;13.18;4.90;;;2.80;99.90;;;2.25;98.55;102473.03;5239398;28;20083;-84
2022/01/15 04:43:50;;;;;;;16.08;5.97;;;2.80;99.90;;;2.26;98.71;102484.22;5238047;28;20055;-85
2022/01/15 04:46:22;;;;;;;14.63;5.55;;;2.70;99.90;;;2.33;98.42;102472.09;5238635;28;20045;-83
2022/01/15 04:48:55;;;;;;;15.70;6.78;;;2.80;99.90;;;2.34;97.94;102468.75;5238606;28;20148;-81
2022/01/15 04:51:27;;;;;;;15.05;5.75;;;2.80;99.90;;;2.29;97.64;102475.16;5238839;28;20415;-82
2022/01/15 04:54:00;;;;;;;15.13;5.15;;;2.80;99.90;;;2.16;97.58;102474.75;5238307;28;20132;-82
2022/01/15 04:56:32;;;;;;;15.80;5.25;;;2.70;99.90;;;2.19;98.20;102467.31;5238779;28;20083;-81
2022/01/15 04:59:05;;;;;;;16.25;5.38;;;2.70;99.90;;;2.17;97.83;102463.69;5238347;28;20495;-82
2022/01/15 05:01:37;;;;;;;14.45;5.22;;;2.70;99.90;;;2.17;98.17;102463.69;5237767;28;20061;-81
2022/01/15 05:04:09;;;;;;;17.08;6.15;;;2.60;99.90;;;2.16;98.01;102467.03;5236804;28;20049;-81
2022/01/15 05:06:41;;;;;;;12.38;4.82;;;2.60;99.90;;;2.18;97.99;102470.66;5237495;28;20502;-83
2022/01/15 05:09:15;;;;;;;16.40;5.35;;;2.70;99.90;;;2.14;98.17;102468.53;5237614;28;20060;-83
2022/01/15 05:11:49;;;;;;;14.60;6.43;;;2.70;99.90;;;2.13;98.45;102462.47;5238282;28;20045;-82
2022/01/15 05:14:21;;;;;;;17.73;5.78;;;2.60;99.90;;;2.14;98.12;102468.53;5236951;28;20057;-84
2022/01/15 05:16:53;;;;;;;14.85;5.05;;;2.60;99.90;;;2.15;98.35;102471.28;5235412;28;20127;-80
2022/01/15 05:19:25;;;;;;;16.48;5.57;;;2.60;99.90;;;2.15;98.23;102460.97;5233271;28;20052;-80
2022/01/15 05:21:58;;;;;;;16.77;5.45;;;2.60;99.90;;;2.16;98.51;102470.50;5233160;28;20446;-81
2022/01/15 05:24:33;;;;;;;11.50;5.00;;;2.60;99.90;;;2.20;98.68;102469.13;5232889;28;20131;-80
2022/01/15 05:27:05;;;;;;;15.43;5.82;;;2.70;99.90;;;2.22;98.52;102461.53;5233986;28;20076;-79
2022/01/15 05:29:37;;;;;;;14.95;6.70;;;2.60;99.90;;;2.21;98.41;102455.47;5234517;28;20048;-79
2022/01/15 05:32:09;;;;;;;19.35;7.55;;;2.70;99.90;;;2.17;98.53;102458.53;5234111;28;20045;-79
2022/01/15 05:34:41;;;;;;;18.10;7.25;;;2.70;99.90;;;2.21;98.48;102462.28;5232629;28;20059;-80
2022/01/15 05:37:13;;;;;;;16.38;6.15;;;2.70;99.90;;;2.22;98.61;102457.31;5234591;28;20056;-81
2022/01/15 05:39:46;;;;;;;11.80;5.15;;;2.70;99.90;;;2.31;98.65;102458.19;5233166;28;20128;-79
2022/01/15 05:42:19;;;;;;;21.02;6.90;;;2.70;99.90;;;2.33;98.45;102446.34;5234178;28;20053;-80
2022/01/15 05:44:51;;;;;;;16.40;5.63;;;2.70;99.90;;;2.38;98.26;102455.41;5232540;28;20124;-80
2022/01/15 05:47:23;;;;;;;13.88;5.20;;;2.70;99.90;;;2.38;98.18;102454.50;5234401;28;20064;-80
2022/01/15 05:49:55;;;;;;;11.65;5.25;;;2.80;99.90;;;2.37;98.19;102452.69;5233344;28;20048;-79
2022/01/15 05:52:27;;;;;;;15.25;6.20;;;2.70;99.90;;;2.36;98.48;102450.91;5233776;28;20514;-79
2022/01/15 05:55:00;;;;;;;14.93;5.53;;;2.80;99.90;;;2.21;98.74;102450.34;5232288;28;20049;-81
2022/01/15 05:57:32;;;;;;;16.95;6.60;;;2.80;99.90;;;2.17;98.79;102449.16;5235999;28;20052;-79
2022/01/15 06:00:06;;;;;;;12.88;5.97;;;2.70;99.90;;;2.16;99.03;102451.59;5234174;28;20059;-79
2022/01/15 06:02:38;;;;;;;13.68;5.50;;;2.70;99.90;;;2.11;99.42;102442.53;5234741;28;20137;-81
2022/01/15 06:05:10;;;;;;;12.50;4.65;;;2.60;99.90;;;2.14;99.43;102446.28;5449034;22;20049;-69
2022/01/15 06:07:43;;;;;;;13.10;5.43;;;2.60;99.90;;;2.13;99.99;102446.13;5203140;28;20046;-69
2022/01/15 06:10:16;;;;;;;15.60;5.43;;;2.60;99.90;;;2.18;99.86;102447.50;5206511;28;20055;-70
2022/01/15 06:12:48;;;;;;;14.95;5.30;;;2.70;99.90;;;2.24;99.86;102444.59;5208837;28;20053;-69
2022/01/15 06:15:20;;;;;;;17.80;6.18;;;2.70;99.90;;;2.22;99.48;102449.59;5208238;28;20054;-70
2022/01/15 06:17:52;;;;;;;17.35;6.38;;;2.70;99.90;;;2.24;99.75;102442.03;5208787;28;20049;-69
2022/01/15 06:20:24;;;;;;;14.85;6.00;;;2.70;99.90;;;2.30;99.66;102442.59;5208353;28;20057;-69
2022/01/15 06:22:56;;;;;;;13.52;4.85;;;2.70;99.90;;;2.34;99.90;102445.56;5208787;28;20049;-69
2022/01/15 06:25:30;;;;;;;14.32;6.15;;;2.80;99.90;;;2.40;99.43;102448.72;5207866;28;20045;-69
2022/01/15 06:28:02;;;;;;;14.93;5.40;;;2.80;99.90;;;2.39;99.68;102430.56;5208581;28;20395;-70
2022/01/15 06:30:34;;;;;;;15.38;5.43;;;2.80;99.90;;;2.36;98.99;102431.22;5208378;28;20055;-69
2022/01/15 06:33:06;;;;;;;12.77;4.45;;;2.80;99.90;;;2.32;98.91;102430.75;5208049;28;20049;-70
2022/01/15 06:35:38;;;;;;;12.05;4.60;;;2.80;99.90;;;2.29;99.13;102427.91;5207928;28;20048;-70
2022/01/15 06:38:10;;;;;;;15.80;5.75;;;2.80;99.90;;;2.28;99.27;102429.59;5208186;28;20049;-69
2022/01/15 06:40:44;;;;;;;14.00;4.93;;;2.80;99.90;;;2.31;99.37;102422.16;5208303;28;20041;-70
2022/01/15 06:43:16;;;;;;;12.13;4.90;;;2.80;99.90;;;2.34;99.31;102421.50;5208030;28;20049;-69
2022/01/15 06:45:48;;;;;;;12.77;4.97;;;2.80;99.90;;;2.36;98.92;102426.06;5207304;28;20049;-70
2022/01/15 06:48:19;;;;;;;14.68;6.07;;;2.80;99.90;;;2.41;98.81;102429.03;5207971;28;20056;-70
2022/01/15 06:50:51;;;;;;;14.18;5.57;;;2.80;99.90;;;2.44;98.82;102425.09;5207888;28;20064;-70
2022/01/15 06:53:24;;;;;;;14.45;5.75;;;2.80;99.90;;;2.44;99.14;102435.41;5207828;28;20490;-70
2022/01/15 06:55:57;;;;;;;11.70;4.90;;;2.90;99.90;;;2.43;99.06;102428.44;5207193;28;20135;-69
2022/01/15 06:58:29;;;;;;;10.93;4.93;;;2.90;99.90;;;2.43;98.90;102438.75;5207956;28;20501;-70
2022/01/15 07:01:01;;;;;;;17.52;6.07;;;2.90;99.90;;;2.46;99.36;102427.81;5207704;28;20056;-70
2022/01/15 07:03:34;;;;;;;14.73;5.30;;;2.90;99.90;;;2.43;99.51;102423.28;5207685;28;20414;-69
2022/01/15 07:06:06;;;;;;;10.80;4.93;;;2.90;99.90;;;2.43;99.41;102423.28;5206938;28;20056;-70
2022/01/15 07:08:38;;;;;;;11.45;5.00;;;2.90;99.90;;;2.41;99.77;102411.97;5207753;28;20050;-70
2022/01/15 07:11:11;;;;;;;12.40;5.20;;;2.90;99.90;;;2.45;99.54;102414.03;5207588;28;20049;-71
2022/01/15 07:13:43;;;;;;;17.00;6.78;;;2.90;99.90;;;2.49;99.73;102417.81;5207590;28;20406;-69
2022/01/15 07:16:15;;;;;;;13.13;4.50;;;2.90;99.90;;;2.55;99.52;102412.34;5207815;28;20467;-70
2022/01/15 07:18:47;;;;;;;13.23;5.47;;;3.00;99.90;;;2.57;99.52;102410.78;5207465;28;20429;-70
2022/01/15 07:21:19;;;;;;;14.13;5.45;;;3.00;99.90;;;2.58;99.60;102407.44;5206564;28;20063;-70
2022/01/15 07:23:51;;;;;;;11.00;4.72;;;3.00;99.90;;;2.55;99.57;102399.47;5207789;28;20363;-69
2022/01/15 07:26:24;;;;;;;14.10;4.85;;;3.00;99.90;;;2.53;99.67;102399.28;5208572;28;20072;-70
2022/01/15 07:28:58;;;;;;;12.90;4.63;;;3.00;99.90;;;2.55;99.57;102402.03;5208353;28;20482;-69
2022/01/15 07:31:30;;;;;;;10.13;4.00;;;3.00;99.90;;;2.59;99.46;102399.84;5207739;28;20053;-70
2022/01/15 07:34:03;;;;;;;12.95;4.43;;;3.00;99.90;;;2.58;99.97;102397.16;5206616;28;20064;-71
2022/01/15 07:36:35;;;;;;;11.43;4.80;;;3.00;99.90;;;2.59;100.00;102404.09;5207269;28;20203;-70
2022/01/15 07:39:09;;;;;;;15.10;4.88;;;3.00;99.90;;;2.57;100.00;102403.06;5207164;28;20045;-70
2022/01/15 07:41:43;;;;;;;13.88;5.40;;;3.00;99.90;;;2.57;100.00;102405.66;5206856;28;20049;-70
2022/01/15 07:44:15;;;;;;;11.85;4.07;;;3.00;99.90;;;2.60;100.00;102396.50;5206569;28;20135;-69
2022/01/15 07:46:47;;;;;;;11.02;4.88;;;3.10;99.90;;;2.68;100.00;102403.28;5206877;28;20049;-70
2022/01/15 07:49:19;;;;;;;10.15;4.25;;;3.10;99.90;;;2.68;100.00;102402.41;5206962;28;20053;-70
2022/01/15 07:51:51;;;;;;;13.25;5.25;;;3.10;99.90;;;2.75;100.00;102402.19;5206812;28;20053;-70
2022/01/15 07:54:23;;;;;;;12.82;5.13;;;3.10;99.90;;;2.76;99.88;102403.09;5206260;28;20060;-70
2022/01/15 07:56:58;;;;;;;11.60;4.82;;;3.10;99.90;;;2.79;100.00;102396.53;5206641;28;20053;-70
2022/01/15 07:59:30;;;;;;;12.60;5.13;;;3.20;99.90;;;2.79;100.00;102399.09;5206331;28;20049;-70
2022/01/15 08:02:02;;;;;;;13.25;4.90;;;3.20;99.90;;;2.78;100.00;102392.16;5206658;28;20497;-70
2022/01/15 08:04:34;;;;;;;10.63;4.38;;;3.20;99.90;;;2.80;99.90;102392.28;5206166;28;20485;-70
2022/01/15 08:07:08;;;;;;;12.98;4.85;;;3.20;99.90;;;2.79;100.00;102393.06;5206332;28;20049;-70
2022/01/15 08:09:40;;;;;;;11.68;5.00;;;3.20;99.90;;;2.70;99.94;102393.13;5206467;28;20057;-69
2022/01/15 08:12:14;;;;;;;11.60;4.82;;;3.20;99.90;;;2.66;100.00;102386.78;5206399;28;20486;-70
2022/01/15 08:14:46;;;;;;;11.90;5.28;;;3.10;99.90;;;2.60;100.00;102396.50;5206152;28;20475;-70
2022/01/15 08:17:18;;;;;;;9.98;4.03;;;3.10;99.90;;;2.61;100.00;102397.44;5206444;28;20128;-70
2022/01/15 08:19:50;;;;;;;12.85;4.50;;;3.10;99.90;;;2.61;100.00;102389.72;5206488;28;20049;-69
2022/01/15 08:22:22;;;;;;;12.02;4.72;;;3.10;99.90;;;2.64;100.00;102395.13;5206400;28;20049;-69
2022/01/15 08:24:54;;;;;;;12.20;5.05;;;3.10;99.90;;;2.66;100.00;102394.50;5205808;28;20052;-70
2022/01/15 08:27:28;;;;;;;10.63;4.13;;;3.10;99.90;;;2.62;100.00;102395.00;5206347;28;20410;-70
2022/01/15 08:30:00;;;;;;;10.77;4.22;;;3.10;99.90;;;2.58;100.00;102382.59;5206070;28;20051;-69
2022/01/15 08:32:32;;;;;;;9.80;4.70;;;3.10;99.90;;;2.64;100.00;102387.41;5205543;28;20050;-70
2022/01/15 08:35:06;;;;;;;12.48;5.95;;;3.10;99.90;;;2.69;100.00;102381.03;5205413;28;20418;-70
2022/01/15 08:37:39;;;;;;;13.18;4.53;;;3.10;99.90;;;2.68;100.00;102374.97;5205834;28;20045;-71
2022/01/15 08:40:14;;;;;;;11.57;4.85;;;3.10;99.90;;;2.73;100.00;102376.25;5205884;28;20057;-69
2022/01/15 08:42:48;;;;;;;;;;;3.20;99.90;;;2.73;100.00;102377.94;5206297;28;20053;-70
2022/01/15 08:45:20;;;;;;;10.07;4.22;;;3.20;99.90;;;2.74;100.00;102374.63;5205034;28;19920;-69
2022/01/15 08:47:53;;;;;;;13.35;4.43;;;3.20;99.90;;;2.77;100.00;102385.19;5206006;28;20045;-70
2022/01/15 08:50:25;;;;;;;12.65;5.15;;;3.20;99.90;;;2.76;100.00;102387.63;5205869;28;20049;-70
2022/01/15 08:52:57;;;;;;;11.30;5.28;;;3.20;99.90;;;2.75;100.00;102385.84;5205792;28;20046;-70
2022/01/15 08:55:29;;;;;;;13.70;6.00;;;3.20;99.90;;;2.74;100.00;102387.50;5205531;28;20129;-72
2022/01/15 08:58:03;;;;;;;14.00;4.78;;;3.20;99.90;;;2.80;100.00;102382.88;5205689;28;20497;-73
2022/01/15 09:00:36;;;;;;;11.93;4.25;;;3.20;99.90;;;2.92;100.00;102386.56;5206234;28;20075;-75
2022/01/15 09:03:08;;;;;;;14.13;5.18;;;3.30;99.90;;;3.11;100.00;102388.25;5205637;28;20053;-74
2022/01/15 09:05:41;;;;;;;15.90;6.15;;;3.50;99.90;;;3.21;100.00;102385.75;5204970;28;20418;-74
2022/01/15 09:08:13;;;;;;;10.90;4.55;;;3.60;99.90;;;3.29;100.00;102387.31;5205245;28;20049;-73
2022/01/15 09:10:45;;;;;;;10.82;4.40;;;3.60;99.90;;;3.31;100.00;102383.19;5205774;28;20054;-74
2022/01/15 09:13:18;;;;;;;12.65;5.72;;;3.70;99.90;;;3.32;99.13;102385.00;5205410;28;20042;-74
2022/01/15 09:15:50;;;;;;;14.85;4.82;;;3.70;99.90;;;3.19;98.04;102387.25;5204851;28;20129;-72
2022/01/15 09:18:22;;;;;;;11.48;4.32;;;3.70;99.90;;;3.04;97.83;102379.06;5205520;28;20060;-72
2022/01/15 09:20:54;;;;;;;12.68;4.95;;;3.60;99.90;;;2.94;97.92;102387.66;5205193;28;20383;-72
2022/01/15 09:23:26;;;;;;;13.40;4.70;;;3.50;99.90;;;3.05;97.86;102378.28;5205587;28;20056;-72
2022/01/15 09:25:59;;;;;;;12.73;5.30;;;3.50;99.90;;;3.03;97.50;102378.91;5204870;28;20479;-72
2022/01/15 09:31:22;;;;;;;12.00;4.38;;;3.40;99.90;;;2.99;98.46;102380.31;5209910;28;20411;-71
2022/01/15 09:33:54;;;;;;;12.82;5.25;;;3.40;99.90;;;2.99;98.20;102378.63;5225262;28;20049;-72
2022/01/15 09:36:26;;;;;;;12.43;4.40;;;3.40;99.90;;;2.92;98.05;102376.28;5225739;28;20490;-74
2022/01/15 09:38:58;;;;;;;12.68;5.70;;;3.40;99.90;;;2.88;98.46;102374.19;5225643;28;20048;-71
2022/01/15 09:41:32;;;;;;;13.68;4.80;;;3.40;99.90;;;2.94;98.62;102373.84;5225464;28;20049;-74
2022/01/15 09:44:06;;;;;;;13.05;5.22;;;3.40;99.90;;;2.89;98.65;102370.84;5224932;28;20131;-72
2022/01/15 09:46:39;;;;;;;9.43;4.20;;;3.40;99.90;;;2.88;98.83;102369.06;5225309;28;20049;-73
2022/01/15 09:49:12;;;;;;;10.60;4.57;;;3.30;99.90;;;2.86;99.07;102369.66;5225560;28;20568;-71
2022/01/15 09:51:45;;;;;;;12.13;4.72;;;3.30;99.90;;;2.88;99.14;102365.56;5225580;28;20049;-71
2022/01/15 09:54:20;;;;;;;10.95;4.50;;;3.40;99.90;;;2.91;99.64;102359.00;5224880;28;20049;-73
2022/01/15 09:56:52;;;;;;;12.27;5.85;;;3.40;99.90;;;3.05;99.72;102364.50;5225272;28;20055;-71
2022/01/15 09:59:25;;;;;;;13.18;5.03;;;3.40;99.90;;;3.07;99.25;102363.00;5225551;28;20422;-72
2022/01/15 10:02:02;;;;;;;12.00;4.60;;;3.50;99.90;;;3.11;98.87;102362.47;5223917;28;20055;-72
2022/01/15 10:04:35;;;;;;;13.73;5.25;;;3.50;99.90;;;3.08;98.41;102363.13;5223327;28;20560;-71
2022/01/15 10:07:13;;;;;;;11.65;4.53;;;3.50;99.90;;;3.06;98.50;102354.31;5225318;28;20041;-71
2022/01/15 10:09:46;;;;;;;12.70;5.82;;;3.50;99.90;;;3.07;98.53;102350.09;5225368;28;20052;-74
2022/01/15 10:12:28;;;;;;;18.05;7.53;;;3.50;99.90;;;3.17;98.36;102357.88;5225334;28;20052;-71
2022/01/15 10:15:04;;;;;;;10.98;4.80;;;3.50;99.90;;;3.19;98.24;102356.31;5224826;28;20060;-71
2022/01/15 10:17:39;;;;;;;13.18;5.82;;;3.50;99.90;;;3.11;97.74;102358.22;5225353;28;20460;-74
2022/01/15 10:20:14;;;;;;;10.60;4.03;;;3.60;99.90;;;2.98;97.94;102345.91;5225162;28;20053;-72
2022/01/15 10:22:49;;;;;;;11.82;3.97;;;3.50;99.90;;;2.98;98.41;102345.00;5225337;28;20497;-71
2022/01/15 10:25:23;;;;;;;12.95;4.80;;;3.50;99.90;;;2.98;98.40;102335.59;5224426;28;20424;-71
2022/01/15 10:27:56;;;;;;;9.48;4.32;;;3.40;99.90;;;2.96;98.42;102349.13;5205857;28;20045;-70
2022/01/15 10:30:31;;;;;;;10.60;4.35;;;3.40;99.90;;;2.95;98.72;102340.50;5204564;28;20045;-70
2022/01/15 10:33:07;;;;;;;12.05;4.00;;;3.40;99.90;;;2.98;98.71;102335.59;5204721;28;20074;-71
2022/01/15 10:35:42;;;;;;;12.18;4.65;;;3.40;99.90;;;3.14;98.22;102335.31;5203805;28;20053;-71
2022/01/15 10:38:16;;;;;;;11.30;4.97;;;3.40;99.90;;;3.19;97.75;102336.59;5204853;28;20045;-71
2022/01/15 10:40:51;;;;;;;12.70;4.93;;;3.50;99.90;;;3.13;97.88;102330.94;5204648;28;20071;-72
2022/01/15 10:43:33;;;;;;;13.90;5.28;;;3.50;99.90;;;3.13;98.21;102330.94;5207430;28;20145;-71
2022/01/15 10:46:07;;;;;;;10.57;4.20;;;3.50;99.90;;;3.16;98.20;102331.19;5204351;28;20053;-71
2022/01/15 10:48:40;;;;;;;13.38;5.03;;;3.60;99.90;;;3.15;98.22;102324.25;5214627;28;20049;-71
2022/01/15 10:51:13;;;;;;;11.45;4.25;;;3.60;99.90;;;3.23;97.55;102310.34;5207719;28;20053;-72
2022/01/15 10:53:47;;;;;;;12.90;5.72;;;3.60;99.90;;;3.18;97.92;102308.13;5202555;28;20049;-74